Terminal Aerodrome Forecast
Issued by NWS

Home | Current Version | Previous Version | Text Only | Print | Product List | Glossary On
Versions: 1 2 3 4 5 6 7 8 9 10 11 12 13 14 15
000
FTUS45 KRIW 251100
TAFRKS
TAF
KRKS 251139Z 2512/2612 VRB05KT P6SM FEW150
     FM251800 25014KT P6SM FEW110 SCT150
     FM252100 27020G28KT P6SM FEW110 SCT150
     FM260300 28013KT P6SM FEW150
     FM260600 VRB06KT P6SM FEW150=

USA.gov is the U.S. government's official web portal to all federal, state and local government web resources and services.